Time;durP1;ratioP1;P1;durP2;ratioP2;P2;SDS_P1;SDS_P2;PMS_P1;PMS_P2;Temp;Humidity;BMP_temperature;BMP_pressure;BME280_temperature;BME280_humidity;BME280_pressure;Samples;Min_cycle;Max_cycle;Signal;HPM_P1;HPM_P2
2023/02/05 00:01:52;;;;;;;22.63;21.40;;;;;;;;;;5101819;28;20208;-85
2023/02/05 00:04:19;;;;;;;22.35;21.02;;;;;;;;;;5101988;28;20224;-85
2023/02/05 00:06:48;;;;;;;21.77;20.52;;;;;;;;;;5100928;28;20203;-85
2023/02/05 00:09:15;;;;;;;21.75;20.55;;;;;;;;;;5101952;28;20222;-85
2023/02/05 00:11:42;;;;;;;21.45;20.27;;;;;;;;;;5100501;28;20224;-85
2023/02/05 00:14:09;;;;;;;21.55;20.25;;;;;;;;;;5101246;28;20200;-85
2023/02/05 00:16:36;;;;;;;21.92;20.63;;;;;;;;;;5100933;28;20227;-85
2023/02/05 00:19:04;;;;;;;21.60;20.25;;;;;;;;;;5100172;28;20210;-84
2023/02/05 00:21:31;;;;;;;22.55;21.15;;;;;;;;;;5100214;28;20201;-85
2023/02/05 00:23:59;;;;;;;21.27;19.98;;;;;;;;;;5100599;28;20224;-85
2023/02/05 00:26:26;;;;;;;22.25;20.25;;;;;;;;;;5100605;28;20277;-85
2023/02/05 00:28:53;;;;;;;20.65;19.55;;;;;;;;;;5099136;28;20208;-85
2023/02/05 00:31:21;;;;;;;21.88;20.58;;;;;;;;;;5100017;28;20692;-86
2023/02/05 00:33:48;;;;;;;21.33;20.13;;;;;;;;;;5100850;28;20200;-85
2023/02/05 00:36:16;;;;;;;22.08;20.80;;;;;;;;;;5100290;28;20227;-85
2023/02/05 00:38:43;;;;;;;20.65;19.55;;;;;;;;;;5100481;28;20209;-85
2023/02/05 00:41:12;;;;;;;20.58;19.48;;;;;;;;;;5100347;28;20230;-86
2023/02/05 00:43:39;;;;;;;21.70;20.45;;;;;;;;;;5100763;28;20590;-85
2023/02/05 00:46:06;;;;;;;21.30;20.10;;;;;;;;;;5099703;28;20223;-85
2023/02/05 00:48:33;;;;;;;20.98;19.85;;;;;;;;;;5100667;28;20204;-85
2023/02/05 00:51:00;;;;;;;22.05;20.75;;;;;;;;;;5100909;28;20726;-85
2023/02/05 00:53:27;;;;;;;21.17;19.92;;;;;;;;;;5099505;28;20200;-85
2023/02/05 00:55:54;;;;;;;22.17;20.83;;;;;;;;;;5100417;28;20218;-85
2023/02/05 00:58:22;;;;;;;22.35;20.88;;;;;;;;;;5100257;28;20206;-85
2023/02/05 01:00:50;;;;;;;20.85;19.65;;;;;;;;;;5100516;28;20333;-85
2023/02/05 01:03:17;;;;;;;21.30;20.10;;;;;;;;;;5098611;28;20225;-85
2023/02/05 01:05:44;;;;;;;20.88;19.77;;;;;;;;;;5100246;28;20262;-85
2023/02/05 01:08:13;;;;;;;21.75;20.42;;;;;;;;;;5100523;28;20229;-85
2023/02/05 01:10:44;;;;;;;21.38;20.10;;;;;;;;;;5100369;28;20231;-85
2023/02/05 01:13:11;;;;;;;22.33;20.92;;;;;;;;;;5100262;28;20196;-85
2023/02/05 01:15:40;;;;;;;21.60;20.40;;;;;;;;;;5099257;28;20222;-85
2023/02/05 01:18:07;;;;;;;21.60;20.30;;;;;;;;;;5100435;28;20335;-85
2023/02/05 01:20:36;;;;;;;22.70;21.33;;;;;;;;;;5099816;28;20612;-85
2023/02/05 01:23:03;;;;;;;21.05;19.85;;;;;;;;;;5100312;28;20217;-85
2023/02/05 01:25:30;;;;;;;21.60;20.30;;;;;;;;;;5103312;28;20250;-85
2023/02/05 01:27:57;;;;;;;20.40;19.30;;;;;;;;;;5103770;28;20211;-85
2023/02/05 01:30:24;;;;;;;20.83;19.73;;;;;;;;;;5104965;28;20211;-85
2023/02/05 01:32:53;;;;;;;21.08;19.77;;;;;;;;;;5102909;28;20203;-84
2023/02/05 01:35:21;;;;;;;20.60;19.50;;;;;;;;;;5103512;28;20575;-85
2023/02/05 01:37:48;;;;;;;20.52;19.42;;;;;;;;;;5104282;28;20194;-85
2023/02/05 01:40:15;;;;;;;21.30;20.15;;;;;;;;;;5103908;28;20205;-85
2023/02/05 01:42:43;;;;;;;21.00;19.90;;;;;;;;;;5103556;28;20725;-85
2023/02/05 01:45:34;;;;;;;20.38;19.27;;;;;;;;;;5103313;28;20260;-85
2023/02/05 01:48:03;;;;;;;21.35;20.10;;;;;;;;;;5083917;28;20206;-85
2023/02/05 01:50:32;;;;;;;21.13;20.02;;;;;;;;;;5103914;28;20204;-85
2023/02/05 01:53:01;;;;;;;21.00;19.90;;;;;;;;;;5103751;28;20234;-84
2023/02/05 01:55:28;;;;;;;21.23;19.92;;;;;;;;;;5103428;28;20323;-84
2023/02/05 01:57:56;;;;;;;20.42;19.20;;;;;;;;;;5103867;28;20253;-85
2023/02/05 02:00:23;;;;;;;20.75;19.55;;;;;;;;;;5102814;28;20250;-85
2023/02/05 02:02:50;;;;;;;20.85;19.70;;;;;;;;;;5101918;28;20213;-85
2023/02/05 02:05:19;;;;;;;22.00;20.70;;;;;;;;;;5102585;28;20280;-85
2023/02/05 02:07:46;;;;;;;21.73;20.25;;;;;;;;;;5103856;28;20259;-85
2023/02/05 02:10:15;;;;;;;21.52;20.17;;;;;;;;;;5103550;28;20201;-85
2023/02/05 02:12:43;;;;;;;21.70;20.30;;;;;;;;;;5102892;28;20206;-85
2023/02/05 02:15:13;;;;;;;20.58;19.50;;;;;;;;;;5102414;28;20250;-87
2023/02/05 02:17:41;;;;;;;21.02;19.90;;;;;;;;;;5103293;28;20547;-85
2023/02/05 02:20:09;;;;;;;20.38;19.30;;;;;;;;;;5103367;28;20263;-85
2023/02/05 02:22:49;;;;;;;20.98;19.70;;;;;;;;;;5103243;28;20255;-85
2023/02/05 02:25:30;;;;;;;21.25;20.05;;;;;;;;;;5103107;28;20230;-84
2023/02/05 02:27:59;;;;;;;20.08;19.00;;;;;;;;;;5102373;28;20209;-85
2023/02/05 02:30:27;;;;;;;22.20;20.52;;;;;;;;;;5103801;28;20201;-85
2023/02/05 02:32:58;;;;;;;20.58;19.17;;;;;;;;;;5102367;28;20624;-85
2023/02/05 02:35:29;;;;;;;21.60;20.10;;;;;;;;;;5102117;28;20219;-85
2023/02/05 02:37:59;;;;;;;20.90;19.65;;;;;;;;;;5101744;28;20672;-85
2023/02/05 02:40:29;;;;;;;21.58;20.27;;;;;;;;;;5103448;28;20205;-85
2023/02/05 02:43:02;;;;;;;21.98;20.38;;;;;;;;;;5102516;28;20245;-84
2023/02/05 02:45:30;;;;;;;21.45;20.10;;;;;;;;;;5102181;28;20224;-85
2023/02/05 02:48:00;;;;;;;22.33;21.02;;;;;;;;;;5102446;28;20239;-85
2023/02/05 02:50:31;;;;;;;21.83;20.55;;;;;;;;;;5101599;28;20277;-84
2023/02/05 02:53:00;;;;;;;21.05;19.75;;;;;;;;;;5101888;28;20200;-85
2023/02/05 02:55:28;;;;;;;21.17;20.08;;;;;;;;;;5102326;28;20249;-85
2023/02/05 02:57:56;;;;;;;21.40;20.20;;;;;;;;;;5103094;28;20205;-85
2023/02/05 03:00:26;;;;;;;20.67;19.38;;;;;;;;;;5102608;28;20196;-85
2023/02/05 03:02:56;;;;;;;21.55;20.25;;;;;;;;;;5100656;28;20232;-85
2023/02/05 03:05:24;;;;;;;21.50;20.30;;;;;;;;;;5102262;28;20225;-85
2023/02/05 03:07:53;;;;;;;23.42;21.80;;;;;;;;;;5102426;28;20204;-85
2023/02/05 03:10:23;;;;;;;21.45;20.20;;;;;;;;;;5101951;28;20200;-85
2023/02/05 03:12:50;;;;;;;22.27;20.88;;;;;;;;;;5101766;28;20262;-84
2023/02/05 03:15:17;;;;;;;21.60;20.40;;;;;;;;;;5101038;28;20220;-85
2023/02/05 03:17:45;;;;;;;21.50;20.20;;;;;;;;;;5101964;28;20214;-86
2023/02/05 03:20:16;;;;;;;21.23;20.00;;;;;;;;;;5102299;28;20733;-86
2023/02/05 03:22:43;;;;;;;21.13;19.98;;;;;;;;;;5101788;28;20209;-84
2023/02/05 03:25:10;;;;;;;21.92;20.60;;;;;;;;;;5101459;28;20286;-85
2023/02/05 03:27:38;;;;;;;22.08;20.67;;;;;;;;;;5103035;28;20655;-85
2023/02/05 03:30:05;;;;;;;20.52;19.33;;;;;;;;;;5101438;28;20669;-85
2023/02/05 03:32:39;;;;;;;22.73;20.83;;;;;;;;;;5101164;28;20236;-84
2023/02/05 03:35:17;;;;;;;20.65;19.40;;;;;;;;;;5101317;28;20239;-85
2023/02/05 03:37:50;;;;;;;20.88;19.55;;;;;;;;;;5101641;28;20193;-85
2023/02/05 03:40:21;;;;;;;20.60;19.38;;;;;;;;;;5101081;28;20222;-85
2023/02/05 03:42:52;;;;;;;22.23;20.92;;;;;;;;;;5101133;28;20247;-85
2023/02/05 03:45:23;;;;;;;22.55;20.95;;;;;;;;;;5100690;28;20229;-85
2023/02/05 03:48:15;;;;;;;21.30;20.00;;;;;;;;;;5100389;28;20189;-85
2023/02/05 03:50:47;;;;;;;22.10;20.60;;;;;;;;;;5080887;28;20262;-85
2023/02/05 03:53:17;;;;;;;21.55;20.17;;;;;;;;;;5100827;28;20209;-84
2023/02/05 03:55:46;;;;;;;22.25;21.05;;;;;;;;;;5100603;28;20233;-84
2023/02/05 03:58:15;;;;;;;21.75;20.23;;;;;;;;;;5102013;28;20243;-85
2023/02/05 04:00:43;;;;;;;22.02;20.63;;;;;;;;;;5101854;28;20209;-85
2023/02/05 04:03:10;;;;;;;22.98;21.33;;;;;;;;;;5099930;28;20216;-85
2023/02/05 04:05:37;;;;;;;22.30;21.02;;;;;;;;;;5100719;28;20234;-84
2023/02/05 04:08:06;;;;;;;22.77;21.38;;;;;;;;;;5101101;28;20202;-84
2023/02/05 04:10:33;;;;;;;22.30;20.98;;;;;;;;;;5102108;28;20235;-85
2023/02/05 04:13:00;;;;;;;24.23;22.23;;;;;;;;;;5100515;28;20201;-85
2023/02/05 04:15:27;;;;;;;22.20;20.83;;;;;;;;;;5101192;28;20220;-85
2023/02/05 04:17:56;;;;;;;23.33;21.73;;;;;;;;;;5101334;28;20568;-84
2023/02/05 04:20:23;;;;;;;22.67;21.10;;;;;;;;;;5101113;28;20602;-84
2023/02/05 04:22:50;;;;;;;23.25;21.83;;;;;;;;;;5100818;28;20208;-84
2023/02/05 04:25:19;;;;;;;23.20;21.80;;;;;;;;;;5100281;28;20236;-85
2023/02/05 04:27:47;;;;;;;23.67;21.88;;;;;;;;;;5101634;28;20261;-85
2023/02/05 04:30:14;;;;;;;22.63;21.13;;;;;;;;;;5101044;28;20254;-83
2023/02/05 04:32:41;;;;;;;24.48;22.33;;;;;;;;;;5100244;28;20251;-85
2023/02/05 04:35:08;;;;;;;23.02;21.45;;;;;;;;;;5101106;28;20702;-85
2023/02/05 04:37:35;;;;;;;24.02;22.38;;;;;;;;;;5099904;28;20212;-85
2023/02/05 04:40:02;;;;;;;24.27;22.67;;;;;;;;;;5101267;28;20201;-85
2023/02/05 04:42:30;;;;;;;22.58;21.17;;;;;;;;;;5100557;28;20210;-85
2023/02/05 04:44:57;;;;;;;23.30;21.92;;;;;;;;;;5100347;28;20694;-85
2023/02/05 04:47:24;;;;;;;23.38;21.80;;;;;;;;;;5100881;28;20204;-85
2023/02/05 04:49:51;;;;;;;22.55;21.10;;;;;;;;;;5100712;28;20246;-85
2023/02/05 04:52:18;;;;;;;23.75;22.25;;;;;;;;;;5100619;28;20251;-85
2023/02/05 04:54:45;;;;;;;23.55;21.70;;;;;;;;;;5100331;28;20252;-84
2023/02/05 04:57:12;;;;;;;23.45;21.73;;;;;;;;;;5100556;28;20193;-85
2023/02/05 04:59:41;;;;;;;23.65;21.60;;;;;;;;;;5100550;28;20212;-85
2023/02/05 05:02:08;;;;;;;24.58;22.77;;;;;;;;;;5099719;28;20266;-86
2023/02/05 05:04:35;;;;;;;24.10;22.40;;;;;;;;;;5099343;28;20233;-84
2023/02/05 05:07:02;;;;;;;24.50;22.70;;;;;;;;;;5101544;28;20611;-85
2023/02/05 05:09:29;;;;;;;23.75;21.92;;;;;;;;;;5099866;28;20236;-85
2023/02/05 05:11:56;;;;;;;24.95;23.40;;;;;;;;;;5099683;28;20258;-85
2023/02/05 05:14:23;;;;;;;23.88;22.48;;;;;;;;;;5099828;28;20207;-85
2023/02/05 05:16:52;;;;;;;23.90;22.30;;;;;;;;;;5099478;28;20204;-85
2023/02/05 05:19:19;;;;;;;23.38;21.67;;;;;;;;;;5100426;28;20222;-85
2023/02/05 05:21:46;;;;;;;24.50;22.63;;;;;;;;;;5099299;28;20261;-86
2023/02/05 05:24:13;;;;;;;25.00;22.67;;;;;;;;;;5099776;28;20612;-85
2023/02/05 05:26:42;;;;;;;23.65;21.95;;;;;;;;;;5099776;28;20277;-86
2023/02/05 05:29:11;;;;;;;23.63;22.02;;;;;;;;;;5099838;28;20307;-86
2023/02/05 05:31:38;;;;;;;25.35;23.50;;;;;;;;;;5099472;28;20275;-85
2023/02/05 05:34:06;;;;;;;25.58;23.63;;;;;;;;;;5099185;28;20255;-85
2023/02/05 05:36:33;;;;;;;26.17;23.75;;;;;;;;;;5099932;28;20243;-85
2023/02/05 05:43:45;;;;;;;24.30;22.60;;;;;;;;;;5100467;28;20227;-84
2023/02/05 05:44:32;;;;;;;23.42;21.90;;;;;;;;;;5100573;28;20243;-85
2023/02/05 05:46:59;;;;;;;23.42;21.70;;;;;;;;;;5100471;28;20210;-84
2023/02/05 05:49:27;;;;;;;26.48;24.83;;;;;;;;;;5101033;28;20198;-85
2023/02/05 05:51:54;;;;;;;23.65;22.25;;;;;;;;;;5100526;28;20202;-85
2023/02/05 05:54:21;;;;;;;23.75;22.25;;;;;;;;;;5101494;28;20231;-86
2023/02/05 05:56:49;;;;;;;24.02;22.45;;;;;;;;;;5100107;28;20205;-85
2023/02/05 05:59:16;;;;;;;23.65;22.05;;;;;;;;;;5100973;28;20642;-85
2023/02/05 06:01:43;;;;;;;23.25;21.83;;;;;;;;;;5099871;28;20255;-85
2023/02/05 06:04:10;;;;;;;24.80;22.88;;;;;;;;;;5100760;28;20204;-85
2023/02/05 06:06:38;;;;;;;24.33;22.52;;;;;;;;;;5101008;28;20229;-85
2023/02/05 06:09:05;;;;;;;25.67;23.48;;;;;;;;;;5101264;28;20231;-84
2023/02/05 06:11:32;;;;;;;25.40;23.65;;;;;;;;;;5103933;28;20206;-85
2023/02/05 06:13:59;;;;;;;24.55;22.85;;;;;;;;;;5105017;28;20242;-84
2023/02/05 06:16:26;;;;;;;26.10;24.27;;;;;;;;;;5103354;28;20243;-85
2023/02/05 06:18:53;;;;;;;27.38;24.85;;;;;;;;;;5104694;28;20851;-85
2023/02/05 06:21:20;;;;;;;25.55;23.40;;;;;;;;;;5104288;28;20671;-85
2023/02/05 06:23:49;;;;;;;24.77;23.05;;;;;;;;;;5104486;28;20212;-85
2023/02/05 06:26:16;;;;;;;26.45;24.02;;;;;;;;;;5103224;28;20282;-85
2023/02/05 06:28:43;;;;;;;25.05;22.98;;;;;;;;;;5103811;28;20259;-85
2023/02/05 06:31:10;;;;;;;25.48;23.25;;;;;;;;;;5104846;28;20231;-85
2023/02/05 06:33:37;;;;;;;24.48;22.67;;;;;;;;;;5103511;28;20209;-86
2023/02/05 06:36:04;;;;;;;26.08;24.38;;;;;;;;;;5103310;28;20221;-85
2023/02/05 06:38:31;;;;;;;24.75;22.80;;;;;;;;;;5103349;28;20209;-85
2023/02/05 06:40:59;;;;;;;29.05;26.83;;;;;;;;;;5103218;28;20205;-85
2023/02/05 06:43:26;;;;;;;24.58;22.48;;;;;;;;;;5102858;28;20214;-85
2023/02/05 06:45:54;;;;;;;25.10;22.95;;;;;;;;;;5102687;28;20229;-84
2023/02/05 06:48:21;;;;;;;25.17;23.17;;;;;;;;;;5103023;28;20268;-85
2023/02/05 06:50:48;;;;;;;24.13;22.33;;;;;;;;;;5102251;28;20206;-85
2023/02/05 06:53:15;;;;;;;24.77;22.83;;;;;;;;;;5102957;28;20205;-85
2023/02/05 06:55:42;;;;;;;25.77;23.67;;;;;;;;;;5103571;28;20225;-84
2023/02/05 06:58:10;;;;;;;26.38;24.13;;;;;;;;;;5103272;28;20611;-84
2023/02/05 07:00:37;;;;;;;25.80;23.85;;;;;;;;;;5103490;28;20223;-85
2023/02/05 07:03:04;;;;;;;25.73;23.83;;;;;;;;;;5101902;28;20690;-85
2023/02/05 07:05:33;;;;;;;25.35;23.48;;;;;;;;;;5102984;28;20225;-85
2023/02/05 07:08:00;;;;;;;24.70;22.90;;;;;;;;;;5102335;28;20205;-86
2023/02/05 07:10:27;;;;;;;27.33;24.80;;;;;;;;;;5103466;28;20209;-85
2023/02/05 07:12:54;;;;;;;26.52;24.17;;;;;;;;;;5102428;28;20251;-84
2023/02/05 07:15:22;;;;;;;29.10;24.08;;;;;;;;;;5101875;28;20220;-84
2023/02/05 07:17:50;;;;;;;28.73;25.73;;;;;;;;;;5103002;28;20201;-84
2023/02/05 07:20:17;;;;;;;26.83;24.58;;;;;;;;;;5102446;28;20259;-84
2023/02/05 07:22:45;;;;;;;26.77;24.52;;;;;;;;;;5102504;28;20733;-84
2023/02/05 07:25:12;;;;;;;26.85;24.15;;;;;;;;;;5101703;28;20694;-85
2023/02/05 07:27:39;;;;;;;27.58;25.42;;;;;;;;;;5102544;28;20208;-85
2023/02/05 07:30:07;;;;;;;27.88;25.25;;;;;;;;;;5102341;28;20262;-84
2023/02/05 07:32:35;;;;;;;27.48;25.27;;;;;;;;;;5101714;28;20197;-84
2023/02/05 07:35:02;;;;;;;29.08;26.27;;;;;;;;;;5099661;28;20232;-84
2023/02/05 07:37:29;;;;;;;29.38;26.65;;;;;;;;;;5100471;28;20286;-83
2023/02/05 07:39:56;;;;;;;28.63;25.88;;;;;;;;;;5099247;28;20691;-82
2023/02/05 07:42:23;;;;;;;29.35;26.85;;;;;;;;;;5099188;28;20331;-89
2023/02/05 07:44:50;;;;;;;29.42;26.60;;;;;;;;;;5099692;28;20689;-82
2023/02/05 07:47:17;;;;;;;29.27;26.80;;;;;;;;;;5099378;28;20325;-83
2023/02/05 07:49:46;;;;;;;30.00;27.58;;;;;;;;;;5098501;28;20258;-82
2023/02/05 07:52:13;;;;;;;28.40;25.75;;;;;;;;;;5098124;28;20267;-83
2023/02/05 07:54:40;;;;;;;44.58;38.55;;;;;;;;;;5099356;28;20227;-83
2023/02/05 07:57:07;;;;;;;31.25;28.55;;;;;;;;;;5099214;28;20201;-82
2023/02/05 07:59:34;;;;;;;31.85;28.45;;;;;;;;;;5098386;28;20716;-80
2023/02/05 08:02:01;;;;;;;30.85;28.17;;;;;;;;;;5097244;28;20205;-80
2023/02/05 08:04:28;;;;;;;30.35;27.05;;;;;;;;;;5097496;28;20202;-80
2023/02/05 08:06:56;;;;;;;32.33;29.52;;;;;;;;;;5097639;28;20234;-81
2023/02/05 08:09:23;;;;;;;35.88;32.85;;;;;;;;;;5098027;28;20213;-80
2023/02/05 08:11:50;;;;;;;34.45;31.27;;;;;;;;;;5097417;28;20209;-79
2023/02/05 08:14:17;;;;;;;32.67;29.67;;;;;;;;;;5097401;28;20205;-80
2023/02/05 08:16:44;;;;;;;30.17;27.50;;;;;;;;;;5097813;28;20697;-80
2023/02/05 08:19:14;;;;;;;33.30;30.13;;;;;;;;;;5098052;28;20269;-80
2023/02/05 08:21:41;;;;;;;34.47;31.77;;;;;;;;;;5097496;28;20209;-80
2023/02/05 08:24:09;;;;;;;31.77;29.02;;;;;;;;;;5097607;28;20210;-79
2023/02/05 08:26:37;;;;;;;31.27;28.55;;;;;;;;;;5097131;28;20224;-80
2023/02/05 08:29:04;;;;;;;30.60;27.98;;;;;;;;;;5097212;28;20206;-80
2023/02/05 08:31:31;;;;;;;31.92;29.10;;;;;;;;;;5097262;28;20736;-81
2023/02/05 08:33:59;;;;;;;30.70;28.23;;;;;;;;;;5097509;28;20208;-80
2023/02/05 08:36:26;;;;;;;32.30;29.40;;;;;;;;;;5097454;28;20271;-80
2023/02/05 08:38:53;;;;;;;31.60;28.95;;;;;;;;;;5098499;28;20206;-80
2023/02/05 08:41:21;;;;;;;34.03;30.40;;;;;;;;;;5098159;28;20227;-81
2023/02/05 08:43:49;;;;;;;35.70;32.33;;;;;;;;;;5098671;28;20205;-80
2023/02/05 08:46:18;;;;;;;33.88;30.88;;;;;;;;;;5096385;28;20692;-79
2023/02/05 08:48:45;;;;;;;32.08;29.55;;;;;;;;;;5097589;28;20208;-80
2023/02/05 08:51:12;;;;;;;32.33;29.60;;;;;;;;;;5097564;28;20266;-80
2023/02/05 08:53:40;;;;;;;33.65;30.25;;;;;;;;;;5097280;28;20236;-81
2023/02/05 08:56:09;;;;;;;33.15;30.42;;;;;;;;;;5097700;28;20225;-80
2023/02/05 08:58:38;;;;;;;32.10;28.90;;;;;;;;;;5098806;28;20276;-79
2023/02/05 09:01:06;;;;;;;31.30;28.58;;;;;;;;;;5098506;28;20231;-80
2023/02/05 09:03:33;;;;;;;35.08;32.03;;;;;;;;;;5096745;28;20209;-80
2023/02/05 09:06:01;;;;;;;34.00;31.00;;;;;;;;;;5097163;28;20240;-79
2023/02/05 09:08:28;;;;;;;34.15;31.52;;;;;;;;;;5098067;28;20209;-80
2023/02/05 09:10:55;;;;;;;34.08;31.05;;;;;;;;;;5097854;28;20208;-80
2023/02/05 09:13:22;;;;;;;35.10;31.02;;;;;;;;;;5097631;28;20189;-80
2023/02/05 09:15:51;;;;;;;33.72;30.70;;;;;;;;;;5097957;28;20231;-80
2023/02/05 09:18:18;;;;;;;34.45;31.42;;;;;;;;;;5097782;28;20257;-80
2023/02/05 09:20:46;;;;;;;34.03;30.90;;;;;;;;;;5097995;28;20208;-80
2023/02/05 09:23:14;;;;;;;35.63;32.40;;;;;;;;;;5097583;28;20190;-79
2023/02/05 09:25:42;;;;;;;39.05;35.83;;;;;;;;;;5097549;28;20252;-80
2023/02/05 09:28:10;;;;;;;34.90;31.80;;;;;;;;;;5097962;28;20212;-79
2023/02/05 09:30:37;;;;;;;32.92;30.02;;;;;;;;;;5098962;28;20251;-80
2023/02/05 09:33:07;;;;;;;36.42;32.55;;;;;;;;;;5098188;28;20206;-79
2023/02/05 09:35:34;;;;;;;33.63;30.67;;;;;;;;;;5097037;28;20233;-80
2023/02/05 09:38:02;;;;;;;36.05;31.95;;;;;;;;;;5097652;28;20254;-80
2023/02/05 09:40:32;;;;;;;34.33;30.88;;;;;;;;;;5098631;28;20203;-80
2023/02/05 09:43:03;;;;;;;35.72;32.42;;;;;;;;;;5098086;28;20185;-80
2023/02/05 09:45:37;;;;;;;36.42;33.03;;;;;;;;;;5102244;28;20225;-80
2023/02/05 09:48:13;;;;;;;35.72;32.72;;;;;;;;;;5101240;28;20210;-80
2023/02/05 09:50:41;;;;;;;35.10;31.85;;;;;;;;;;5104139;28;20249;-80
2023/02/05 09:53:12;;;;;;;36.35;32.55;;;;;;;;;;5100738;28;20208;-79
2023/02/05 09:55:40;;;;;;;38.85;34.85;;;;;;;;;;5101136;28;20279;-80
2023/02/05 09:58:08;;;;;;;38.72;35.17;;;;;;;;;;5101501;28;20205;-79
2023/02/05 10:00:39;;;;;;;36.90;33.38;;;;;;;;;;5095438;28;20259;-84
2023/02/05 10:03:10;;;;;;;37.47;33.85;;;;;;;;;;5089973;28;20549;-87
2023/02/05 10:05:39;;;;;;;36.85;33.50;;;;;;;;;;5100119;28;20267;-78
2023/02/05 10:08:12;;;;;;;36.70;33.00;;;;;;;;;;5101252;28;20206;-88
2023/02/05 10:10:41;;;;;;;35.28;31.45;;;;;;;;;;5098302;28;20187;-88
2023/02/05 10:13:26;;;;;;;36.03;32.40;;;;;;;;;;5100089;28;20224;-88
2023/02/05 10:16:19;;;;;;;36.00;32.47;;;;;;;;;;5100106;28;20595;-85
2023/02/05 10:18:54;;;;;;;36.70;33.22;;;;;;;;;;5081893;28;20658;-85
2023/02/05 10:21:32;;;;;;;42.25;38.45;;;;;;;;;;5093198;28;20194;-89
2023/02/05 10:24:07;;;;;;;43.67;39.13;;;;;;;;;;5099544;28;20232;-88
2023/02/05 10:26:38;;;;;;;36.70;33.50;;;;;;;;;;5098775;28;20270;-89
2023/02/05 10:29:09;;;;;;;36.50;33.00;;;;;;;;;;5099923;28;20610;-88
2023/02/05 10:31:40;;;;;;;41.67;37.70;;;;;;;;;;5101625;28;21009;-87
2023/02/05 10:34:15;;;;;;;34.30;31.10;;;;;;;;;;5100001;28;20633;-83
2023/02/05 10:36:43;;;;;;;48.30;43.15;;;;;;;;;;5102234;28;20604;-83
2023/02/05 10:39:13;;;;;;;42.55;38.50;;;;;;;;;;5089649;28;20210;-85
2023/02/05 10:41:43;;;;;;;39.55;35.92;;;;;;;;;;5098363;28;20194;-85
2023/02/05 10:44:13;;;;;;;38.20;34.60;;;;;;;;;;5103007;28;20266;-85
2023/02/05 10:46:42;;;;;;;34.13;31.23;;;;;;;;;;5101907;28;20691;-84
2023/02/05 10:49:14;;;;;;;36.00;32.77;;;;;;;;;;5103595;28;20214;-85
2023/02/05 10:51:42;;;;;;;40.70;37.00;;;;;;;;;;5102194;28;20415;-85
2023/02/05 10:54:16;;;;;;;37.78;34.53;;;;;;;;;;5105146;28;20206;-85
2023/02/05 10:56:43;;;;;;;37.22;34.13;;;;;;;;;;5104985;28;20205;-80
2023/02/05 10:59:16;;;;;;;35.38;32.08;;;;;;;;;;5107740;28;20284;-80
2023/02/05 11:01:43;;;;;;;40.15;36.13;;;;;;;;;;5103930;28;20217;-83
2023/02/05 11:04:14;;;;;;;36.67;33.38;;;;;;;;;;5103075;28;20268;-84
2023/02/05 11:06:43;;;;;;;38.97;35.10;;;;;;;;;;5103603;28;20207;-82
2023/02/05 11:09:29;;;;;;;37.73;34.37;;;;;;;;;;5105213;28;20255;-84
2023/02/05 11:11:57;;;;;;;38.47;35.13;;;;;;;;;;5106869;28;20450;-81
2023/02/05 11:14:28;;;;;;;35.17;32.33;;;;;;;;;;5104198;28;20263;-82
2023/02/05 11:16:55;;;;;;;34.60;31.50;;;;;;;;;;5104806;28;20266;-82
2023/02/05 11:19:24;;;;;;;35.95;32.90;;;;;;;;;;5104778;28;20203;-82
2023/02/05 11:21:53;;;;;;;38.00;34.67;;;;;;;;;;5105441;28;20240;-82
2023/02/05 11:24:22;;;;;;;37.20;33.80;;;;;;;;;;5106024;28;20205;-81
2023/02/05 11:27:11;;;;;;;36.13;33.20;;;;;;;;;;5103397;28;20252;-85
2023/02/05 11:29:38;;;;;;;36.08;32.97;;;;;;;;;;5102415;28;20218;-84
2023/02/05 11:32:05;;;;;;;34.15;31.38;;;;;;;;;;5101126;28;20206;-85
2023/02/05 11:34:34;;;;;;;34.42;31.83;;;;;;;;;;5102623;28;20233;-85
2023/02/05 11:37:01;;;;;;;31.30;28.80;;;;;;;;;;5104701;28;20729;-85
2023/02/05 11:39:34;;;;;;;30.73;28.40;;;;;;;;;;5102484;28;20210;-84
2023/02/05 11:42:09;;;;;;;27.17;25.27;;;;;;;;;;5100870;28;21002;-85
2023/02/05 11:44:37;;;;;;;28.17;26.27;;;;;;;;;;5101343;28;20222;-85
2023/02/05 11:47:04;;;;;;;27.08;25.38;;;;;;;;;;5099756;28;20466;-84
2023/02/05 11:49:33;;;;;;;28.48;26.38;;;;;;;;;;5100815;28;20210;-82
2023/02/05 11:52:08;;;;;;;26.23;24.52;;;;;;;;;;5103884;28;20210;-83
2023/02/05 11:54:37;;;;;;;29.90;27.80;;;;;;;;;;5100160;28;20692;-85
2023/02/05 11:57:06;;;;;;;26.65;25.05;;;;;;;;;;5100350;28;20494;-81
2023/02/05 11:59:33;;;;;;;26.67;24.97;;;;;;;;;;5098674;28;20260;-84
2023/02/05 12:02:25;;;;;;;26.73;24.83;;;;;;;;;;5094527;28;20902;-74
2023/02/05 12:04:54;;;;;;;24.13;22.63;;;;;;;;;;5094492;28;20295;-74
2023/02/05 12:07:23;;;;;;;26.60;24.98;;;;;;;;;;5093723;28;20271;-74
2023/02/05 12:09:57;;;;;;;27.35;25.35;;;;;;;;;;5094090;28;20262;-74
2023/02/05 12:12:30;;;;;;;27.85;25.85;;;;;;;;;;5093417;28;20573;-74
2023/02/05 12:15:01;;;;;;;28.75;26.75;;;;;;;;;;5093766;28;20229;-73
2023/02/05 12:17:33;;;;;;;26.35;24.65;;;;;;;;;;5094333;28;20201;-74
2023/02/05 12:20:05;;;;;;;29.60;27.38;;;;;;;;;;5088004;28;20292;-79
2023/02/05 12:22:43;;;;;;;29.67;27.48;;;;;;;;;;5092923;28;20210;-73
2023/02/05 12:25:26;;;;;;;29.27;27.17;;;;;;;;;;5094116;28;20224;-76
2023/02/05 12:28:01;;;;;;;28.48;26.48;;;;;;;;;;5094636;28;20252;-76
2023/02/05 12:30:37;;;;;;;30.17;28.08;;;;;;;;;;5093325;28;20209;-74
2023/02/05 12:33:15;;;;;;;29.17;27.02;;;;;;;;;;5092924;28;20270;-74
2023/02/05 12:35:47;;;;;;;29.70;27.60;;;;;;;;;;5093424;28;20280;-74
2023/02/05 12:38:20;;;;;;;30.70;28.50;;;;;;;;;;5093955;28;20258;-73
2023/02/05 12:40:52;;;;;;;31.98;29.48;;;;;;;;;;5093869;28;20262;-75
2023/02/05 12:43:28;;;;;;;30.92;28.73;;;;;;;;;;5093436;28;20194;-74
2023/02/05 12:46:02;;;;;;;30.98;28.77;;;;;;;;;;5093319;28;20270;-75
2023/02/05 12:48:39;;;;;;;26.35;24.35;;;;;;;;;;5093979;28;20570;-74
2023/02/05 12:51:24;;;;;;;31.70;29.10;;;;;;;;;;5093702;28;20205;-74
2023/02/05 12:54:03;;;;;;;32.13;29.67;;;;;;;;;;5094390;28;20190;-74
2023/02/05 12:56:34;;;;;;;31.98;29.60;;;;;;;;;;5092775;28;20226;-74
2023/02/05 12:59:02;;;;;;;31.80;29.30;;;;;;;;;;5093847;28;20243;-74
2023/02/05 13:01:36;;;;;;;32.17;29.67;;;;;;;;;;5092949;28;20329;-74
2023/02/05 13:04:04;;;;;;;31.25;28.85;;;;;;;;;;5093477;28;20209;-74
2023/02/05 13:06:33;;;;;;;30.77;28.27;;;;;;;;;;5092213;28;20707;-74
2023/02/05 13:09:05;;;;;;;33.65;30.95;;;;;;;;;;5093494;28;20251;-74
2023/02/05 13:11:35;;;;;;;34.10;31.33;;;;;;;;;;5092620;28;20263;-74
2023/02/05 13:14:04;;;;;;;35.75;32.85;;;;;;;;;;5093659;28;20258;-74
2023/02/05 13:16:36;;;;;;;34.80;31.83;;;;;;;;;;5092181;28;20228;-74
2023/02/05 13:19:07;;;;;;;35.17;32.17;;;;;;;;;;5093842;28;20243;-74
2023/02/05 13:30:02;;;;;;;35.60;32.78;;;;;;;;;;5097007;28;20212;-74
2023/02/05 13:32:33;;;;;;;36.25;33.35;;;;;;;;;;5096640;28;20205;-73
2023/02/05 13:35:00;;;;;;;36.55;33.75;;;;;;;;;;5096964;28;20229;-74
2023/02/05 13:37:34;;;;;;;41.70;37.58;;;;;;;;;;5096664;28;20197;-74
2023/02/05 13:40:22;;;;;;;37.67;34.40;;;;;;;;;;5096823;28;20210;-74
2023/02/05 13:43:03;;;;;;;36.60;33.50;;;;;;;;;;5096625;28;20431;-74
2023/02/05 13:45:43;;;;;;;35.65;32.67;;;;;;;;;;5096747;28;20234;-74
2023/02/05 13:48:21;;;;;;;31.17;28.63;;;;;;;;;;5097229;28;20210;-74
2023/02/05 13:51:03;;;;;;;31.67;29.30;;;;;;;;;;5096451;28;20213;-74
2023/02/05 13:53:45;;;;;;;30.20;27.95;;;;;;;;;;5096649;28;20468;-74
2023/02/05 13:56:22;;;;;;;30.55;28.33;;;;;;;;;;5096783;28;20225;-74
2023/02/05 13:58:51;;;;;;;26.15;24.35;;;;;;;;;;5096892;28;20209;-74
2023/02/05 14:01:21;;;;;;;29.77;27.77;;;;;;;;;;5095508;28;20214;-75
2023/02/05 14:03:54;;;;;;;27.90;26.00;;;;;;;;;;5096783;28;20434;-75
2023/02/05 14:06:23;;;;;;;27.23;25.20;;;;;;;;;;5096816;28;20465;-74
2023/02/05 14:08:51;;;;;;;30.05;27.55;;;;;;;;;;5096523;28;20747;-74
2023/02/05 14:11:19;;;;;;;30.70;28.48;;;;;;;;;;5095381;28;20272;-74
2023/02/05 14:14:01;;;;;;;28.55;26.50;;;;;;;;;;5096960;28;20202;-75
2023/02/05 14:16:36;;;;;;;30.77;28.50;;;;;;;;;;5096592;28;20237;-76
2023/02/05 14:19:12;;;;;;;30.58;28.30;;;;;;;;;;5096725;28;20209;-76
2023/02/05 14:21:49;;;;;;;32.00;29.70;;;;;;;;;;5095542;28;20262;-76
2023/02/05 14:24:27;;;;;;;32.40;29.95;;;;;;;;;;5096601;28;20263;-75
2023/02/05 14:26:56;;;;;;;32.03;29.60;;;;;;;;;;5096385;28;20204;-75
2023/02/05 14:29:40;;;;;;;32.40;29.80;;;;;;;;;;5096590;28;20445;-75
2023/02/05 14:32:10;;;;;;;33.20;30.40;;;;;;;;;;5094804;28;20214;-75
2023/02/05 14:34:55;;;;;;;32.35;29.80;;;;;;;;;;5095718;28;20278;-75
2023/02/05 14:37:34;;;;;;;32.47;29.88;;;;;;;;;;5096392;28;20194;-76
2023/02/05 14:40:12;;;;;;;35.78;32.47;;;;;;;;;;5096004;28;20258;-76
2023/02/05 14:42:39;;;;;;;34.25;31.40;;;;;;;;;;5095639;28;20197;-75